AirNav   Duncan Aviation - Near you to keep you flying
 
 840 users online  

LS11 East Carroll Parish Hospital Heliport
Lake Providence, Louisiana, USA


FAA INFORMATION EFFECTIVE 04 NOVEMBER 2021

Location

FAA Identifier: LS11
Lat/Long: 32-48-41.3300N 091-10-21.3800W
32-48.688833N 091-10.356333W
32.8114806,-91.1726056
(estimated)
Elevation: 95 ft. / 29 m (estimated)
From city: 1 mile N of LAKE PROVIDENCE, LA
Time zone: UTC -5 (UTC -6 during Standard Time)
Zip code: 71254

Heliport Operations

Heliport use: Private use. Permission required prior to landing
Activation date: 04/2020
Control tower: no
ARTCC: MEMPHIS CENTER
FSS: DE RIDDER FLIGHT SERVICE STATION
Attendance: 
Segmented circle: no

Nearby radio navigation aids

NDB name  Hdg/Dist  Freq  Var  ID
TALLULAH346/34.834402ETKH - -.- ....
BASTROP082/36.032903EBQP -... --.- .--.
METCALF196/38.135901WMTQ -- - --.-

Heliport Services

Runway Information

Helipad H1

Dimensions: 40 x 40 ft. / 12 x 12 m
Surface: concrete
Latitude: 32-48.688833N
Longitude: 091-10.356333W
Elevation: 95.0 ft.
Traffic pattern: leftleft

Heliport Ownership and Management from official FAA records

Ownership: Privately-owned
Owner: EAST CARROLL PARISH HOSPITAL
336 NORTH HOOD ST
LAKE PROVIDENCE, LA 71254
Phone 318-559-4023
Manager: EAST CARROLL PARISH HOSPITAL
336 NORTH HOOD ST
LAKE PROVIDENCE, LA 71254
Phone 318-559-4023
EMAIL: LBRADFORD@ECPHOSP.COM

Heliport Operational Statistics

Aircraft based on the field: 1
Helicopters: 1
    

Instrument Procedures

There are no published instrument procedures at LS11.

Some nearby airports with instrument procedures:

KTVR - Vicksburg Tallulah Regional Airport (29 nm S)
M32 - Lake Village Municipal Airport (33 nm N)
KBQP - Morehouse Memorial Airport (36 nm W)
87I - Yazoo County Airport (36 nm E)
M79 - John H Hooks Jr Memorial Airport (36 nm SW)
 
Loc | Ops | Rwys | IFR | FBO | Links
Com | Nav | Svcs | Stats | Notes
Aerial photo
No photo
 
Airport distance calculator
Flying to East Carroll Parish Hospital Heliport? Find the distance to fly.

From to LS11

Sunrise and sunset
Times for 30-Nov-2021
 Local
(UTC-6)
 Zulu
(UTC)
Morning civil twilight06:2312:23
Sunrise06:4912:49
Sunset16:5722:57
Evening civil twilight17:2423:24

Current date and time
Zulu (UTC)  01-Dec-2021 05:08:36
Local (UTC-6)  30-Nov-2021 23:08:36
 
METAR
KTVR 
29nm S 
010453Z AUTO 00000KT 10SM CLR 07/05 A3016 RMK AO2 SLP218 T00720050
KVKS 
37nm S 
010455Z AUTO 00000KT 10SM SCT020 BKN027 BKN040 07/07 A3015 RMK A01
KGLH 
42nm N 
010453Z AUTO 19007KT 10SM CLR 11/07 A3012 RMK AO2 SLP206 T01060072
KMLU 
47nm W 
010453Z AUTO 17004KT 10SM CLR 11/07 A3014 RMK AO2 SLP207 T01060072
KJVW 
49nm SE 
010455Z AUTO 00000KT 10SM CLR 06/06 A3017 RMK AO2
TAF
KGLH 
42nm N 
301720Z 3018/0118 22010KT P6SM SKC
KMLU 
47nm W 
301725Z 3018/0118 21007KT P6SM SCT250 FM010000 VRB03KT P6SM FEW250 FM011500 22011KT P6SM SKC
NOTAMs
Click for the latest NOTAMs
NOTAMs are issued by the DoD/FAA and will open in a separate window not controlled by AirNav.

 

 
 

Would you like to see your business listed on this page?

 If your business provides an interesting product or service to pilots, flight crews, aircraft, or users of the East Carroll Parish Hospital Heliport, you should consider listing it here.  To start the listing process, click on the button below
 
Add a business
 

Other Pages about East Carroll Parish Hospital Heliport

Update a link
 
Copyright © AirNav, LLC. All rights reserved. Privacy Policy  Contact